createdAt,value
2022-09-05T00:00:23.135Z,9.60
2022-09-05T00:03:20.871Z,9.60
2022-09-05T00:06:12.557Z,9.60
2022-09-05T00:08:57.411Z,9.60
2022-09-05T00:11:56.771Z,9.60
2022-09-05T00:15:16.627Z,9.60
2022-09-05T00:22:48.346Z,9.60
2022-09-05T00:24:22.209Z,9.60
2022-09-05T00:24:50.245Z,9.60
2022-09-05T00:27:20.759Z,9.60
2022-09-05T00:31:06.958Z,9.50
2022-09-05T00:33:28.701Z,9.50
2022-09-05T00:36:14.319Z,9.50
2022-09-05T00:38:42.772Z,9.50
2022-09-05T00:41:13.456Z,9.50
2022-09-05T00:43:48.359Z,9.40
2022-09-05T00:46:22.682Z,9.40
2022-09-05T00:49:18.140Z,9.40
2022-09-05T00:51:57.467Z,9.40
2022-09-05T00:54:26.834Z,9.40
2022-09-05T00:57:45.076Z,9.40
2022-09-05T01:00:47.594Z,9.40
2022-09-05T01:03:58.680Z,9.30
2022-09-05T01:06:53.326Z,9.30
2022-09-05T01:09:33.119Z,9.40
2022-09-05T01:12:27.869Z,9.30
2022-09-05T01:15:25.703Z,9.30
2022-09-05T01:18:34.562Z,9.30
2022-09-05T01:21:31.321Z,9.30
2022-09-05T01:24:15.303Z,9.30
2022-09-05T01:26:53.767Z,9.40
2022-09-05T01:29:35.410Z,9.40
2022-09-05T01:32:37.396Z,9.50
2022-09-05T01:35:28.377Z,9.50
2022-09-05T01:38:27.362Z,9.50
2022-09-05T01:41:18.574Z,9.50
2022-09-05T01:44:10.806Z,9.50
2022-09-05T01:46:42.206Z,9.40
2022-09-05T01:49:25.345Z,9.40
2022-09-05T01:52:16.612Z,9.30
2022-09-05T01:54:49.653Z,9.30
2022-09-05T01:57:40.358Z,9.30
2022-09-05T02:00:14.757Z,9.30
2022-09-05T02:02:50.361Z,9.20
2022-09-05T02:05:47.873Z,9.20
2022-09-05T02:08:19.359Z,9.10
2022-09-05T02:11:06.123Z,9.10
2022-09-05T02:13:36.287Z,9.10
2022-09-05T02:16:16.996Z,9.00
2022-09-05T02:18:58.012Z,9.00
2022-09-05T02:21:55.320Z,9.00
2022-09-05T02:24:28.879Z,9.00
2022-09-05T02:27:48.965Z,9.00
2022-09-05T02:30:31.050Z,8.90
2022-09-05T02:33:23.793Z,8.80
2022-09-05T02:36:14.135Z,8.80
2022-09-05T02:44:22.005Z,8.70
2022-09-05T02:45:09.794Z,8.60
2022-09-05T02:45:25.779Z,8.60
2022-09-05T02:48:25.786Z,8.60
2022-09-05T02:57:30.320Z,8.50
2022-09-05T02:57:34.042Z,8.50
2022-09-05T02:58:06.682Z,8.50
2022-09-05T03:00:31.195Z,8.50
2022-09-05T03:03:01.347Z,8.40
2022-09-05T03:05:58.892Z,8.40
2022-09-05T03:08:37.815Z,8.40
2022-09-05T03:11:26.925Z,8.40
2022-09-05T03:14:15.745Z,8.40
2022-09-05T03:17:01.392Z,8.40
2022-09-05T03:19:54.661Z,8.30
2022-09-05T03:23:03.085Z,8.30
2022-09-05T03:25:57.287Z,8.30
2022-09-05T03:28:51.930Z,8.30
2022-09-05T03:32:09.325Z,8.30
2022-09-05T03:34:41.842Z,8.30
2022-09-05T03:37:46.627Z,8.30
2022-09-05T03:40:34.807Z,8.20
2022-09-05T03:43:10.554Z,8.20
2022-09-05T03:45:55.904Z,8.20
2022-09-05T03:48:40.030Z,8.10
2022-09-05T03:57:08.398Z,8.10
2022-09-05T03:57:10.995Z,8.10
2022-09-05T03:57:44.225Z,8.10
2022-09-05T04:00:21.797Z,8.10
2022-09-05T04:08:10.688Z,8.00
2022-09-05T04:08:17.304Z,8.10
2022-09-05T04:09:49.345Z,8.00
2022-09-05T04:12:21.303Z,8.10
2022-09-05T04:15:03.443Z,8.10
2022-09-05T04:17:42.276Z,8.10
2022-09-05T04:20:37.321Z,8.20
2022-09-05T04:23:29.862Z,8.20
2022-09-05T04:26:32.162Z,8.20
2022-09-05T04:29:22.963Z,8.20
2022-09-05T04:32:27.235Z,8.20
2022-09-05T04:35:29.684Z,8.30
2022-09-05T04:38:10.708Z,8.30
2022-09-05T04:40:37.757Z,8.30
2022-09-05T04:43:35.432Z,8.40
2022-09-05T04:46:29.752Z,8.40
2022-09-05T04:48:59.534Z,8.40
2022-09-05T04:51:43.954Z,8.40
2022-09-05T04:54:32.162Z,8.40
2022-09-05T04:57:26.027Z,8.50
2022-09-05T05:04:02.365Z,8.60
2022-09-05T05:06:08.722Z,8.70
2022-09-05T05:06:12.918Z,8.70
2022-09-05T05:08:49.242Z,8.80
2022-09-05T05:17:54.816Z,9.00
2022-09-05T05:18:07.633Z,9.20
2022-09-05T05:18:15.973Z,9.10
2022-09-05T05:20:44.280Z,9.30
2022-09-05T05:23:16.279Z,9.60
2022-09-05T05:25:51.130Z,9.70
2022-09-05T05:28:32.242Z,9.90
2022-09-05T05:31:24.965Z,10.00
2022-09-05T05:33:54.424Z,10.00
2022-09-05T05:36:27.432Z,10.00
2022-09-05T05:39:08.177Z,10.10
2022-09-05T05:41:47.966Z,10.10
2022-09-05T05:44:26.288Z,10.30
2022-09-05T05:47:02.157Z,10.40
2022-09-05T05:49:53.163Z,10.50
2022-09-05T05:52:39.671Z,10.60
2022-09-05T05:55:51.486Z,10.80
2022-09-05T05:58:52.624Z,10.90
2022-09-05T06:01:38.747Z,11.00
2022-09-05T06:04:20.796Z,11.20
2022-09-05T06:07:25.652Z,11.30
2022-09-05T06:14:50.772Z,11.50
2022-09-05T06:14:57.363Z,11.70
2022-09-05T06:16:42.779Z,11.90
2022-09-05T06:20:11.093Z,12.10
2022-09-05T06:22:57.156Z,12.30
2022-09-05T06:25:24.128Z,12.30
2022-09-05T06:28:18.814Z,12.40
2022-09-05T06:31:30.085Z,12.40
2022-09-05T06:34:35.690Z,12.40
2022-09-05T06:37:22.525Z,12.30
2022-09-05T06:40:32.037Z,12.30
2022-09-05T06:43:16.725Z,12.30
2022-09-05T06:46:02.066Z,12.40
2022-09-05T06:49:28.451Z,12.50
2022-09-05T06:51:45.262Z,12.60
2022-09-05T06:54:19.239Z,12.60
2022-09-05T07:00:17.511Z,12.60
2022-09-05T07:03:03.339Z,12.70
2022-09-05T07:05:55.861Z,12.70
2022-09-05T07:08:34.992Z,12.70
2022-09-05T07:11:32.491Z,12.70
2022-09-05T07:14:21.613Z,12.70
2022-09-05T07:16:50.168Z,12.80
2022-09-05T07:19:46.404Z,12.80
2022-09-05T07:22:46.143Z,13.00
2022-09-05T07:25:18.790Z,13.10
2022-09-05T07:28:26.904Z,13.30
2022-09-05T07:31:07.704Z,13.40
2022-09-05T07:33:39.348Z,13.70
2022-09-05T07:36:16.940Z,14.00
2022-09-05T07:39:02.333Z,14.30
2022-09-05T07:41:44.535Z,14.60
2022-09-05T08:12:17.225Z,15.40
2022-09-05T08:17:59.656Z,15.20
2022-09-05T08:24:01.114Z,15.10
2022-09-05T08:26:38.549Z,15.10
2022-09-05T08:29:33.531Z,15.10
2022-09-05T08:32:03.387Z,15.00
2022-09-05T08:34:44.545Z,15.00
2022-09-05T08:46:37.085Z,15.20
2022-09-05T09:45:41.556Z,15.80
2022-09-05T09:48:24.831Z,15.90
2022-09-05T09:51:03.946Z,15.90
2022-09-05T09:53:49.453Z,16.10
2022-09-05T09:56:40.419Z,16.20
2022-09-05T09:59:54.291Z,16.30
2022-09-05T10:04:54.281Z,16.40
2022-09-05T10:10:39.226Z,16.30
2022-09-05T10:10:43.853Z,16.30
2022-09-05T10:11:55.513Z,16.30
2022-09-05T10:14:49.659Z,16.30
2022-09-05T10:27:00.203Z,16.40
2022-09-05T10:30:03.354Z,16.30
2022-09-05T10:35:10.680Z,16.20
2022-09-05T10:35:37.570Z,16.10
2022-09-05T10:38:12.601Z,16.10
2022-09-05T10:41:19.748Z,16.20
2022-09-05T10:43:39.691Z,16.40
2022-09-05T10:46:50.158Z,16.30
2022-09-05T10:49:30.454Z,16.30
2022-09-05T10:52:11.546Z,16.40
2022-09-05T10:55:14.809Z,16.60
2022-09-05T10:57:53.640Z,16.60
2022-09-05T11:02:23.801Z,16.60
2022-09-05T11:03:52.758Z,16.60
2022-09-05T11:06:27.672Z,16.70
2022-09-05T11:09:22.709Z,16.80
2022-09-05T11:12:21.606Z,16.70
2022-09-05T11:14:58.013Z,16.80
2022-09-05T11:17:49.512Z,16.80
2022-09-05T11:20:58.061Z,16.80
2022-09-05T11:23:57.274Z,16.90
2022-09-05T11:29:25.451Z,16.90
2022-09-05T11:32:42.112Z,16.70
2022-09-05T11:39:48.632Z,16.70
2022-09-05T11:39:57.507Z,16.70
2022-09-05T11:41:16.485Z,16.80
2022-09-05T11:43:46.872Z,16.80
2022-09-05T11:46:31.243Z,16.80
2022-09-05T11:49:46.005Z,16.80
2022-09-05T11:52:22.564Z,16.70
2022-09-05T11:55:21.080Z,16.80
2022-09-05T11:58:43.424Z,16.90
2022-09-05T12:01:41.199Z,16.90
2022-09-05T12:04:13.221Z,16.80
2022-09-05T12:10:46.000Z,16.70
2022-09-05T12:13:36.138Z,16.80
2022-09-05T12:16:48.742Z,16.80
2022-09-05T12:19:40.564Z,16.90
2022-09-05T12:22:23.617Z,17.00
2022-09-05T12:25:27.441Z,16.90
2022-09-05T12:29:27.347Z,16.80
2022-09-05T12:42:10.481Z,16.70
2022-09-05T17:52:34.681Z,12.00
2022-09-05T17:55:21.908Z,12.00
2022-09-05T17:57:50.774Z,11.90
2022-09-05T18:00:58.661Z,11.90
2022-09-05T18:03:45.474Z,11.80
2022-09-05T19:25:32.830Z,10.90
2022-09-05T19:35:51.443Z,10.90
2022-09-05T19:36:55.587Z,10.80
2022-09-05T20:31:02.213Z,11.30
2022-09-05T20:54:22.374Z,11.60
2022-09-05T20:55:43.164Z,11.60
2022-09-05T20:58:24.873Z,11.60
2022-09-05T21:04:02.944Z,11.50
2022-09-05T21:06:41.495Z,11.50
2022-09-05T21:11:51.458Z,11.40
2022-09-05T21:14:20.538Z,11.30
2022-09-05T21:16:57.494Z,11.20
2022-09-05T21:19:33.340Z,11.10
2022-09-05T21:22:33.415Z,11.00
2022-09-05T21:25:20.476Z,10.90
2022-09-05T21:28:23.924Z,10.80
2022-09-05T21:31:15.790Z,10.70
2022-09-05T21:33:45.126Z,10.70
2022-09-05T21:36:14.538Z,10.60
2022-09-05T21:38:42.934Z,10.50
2022-09-05T21:41:15.949Z,10.50
2022-09-05T21:47:39.559Z,10.40
2022-09-05T21:47:46.458Z,10.30
2022-09-05T21:49:22.831Z,10.20
2022-09-05T21:51:50.625Z,10.20
2022-09-05T21:59:17.963Z,10.20
2022-09-05T21:59:24.360Z,10.20
2022-09-05T22:00:11.141Z,10.10
2022-09-05T22:02:38.683Z,10.10
2022-09-05T22:05:06.151Z,10.00
2022-09-05T22:07:35.915Z,10.00
2022-09-05T22:10:06.939Z,9.90
2022-09-05T22:12:39.235Z,9.90
2022-09-05T22:15:27.586Z,9.80
2022-09-05T22:18:16.536Z,9.70
2022-09-05T22:20:53.514Z,9.70
2022-09-05T22:23:37.589Z,9.70
2022-09-05T22:26:07.641Z,9.70
2022-09-05T22:28:38.777Z,9.80
2022-09-05T22:31:07.510Z,9.80
2022-09-05T22:33:36.271Z,9.80
2022-09-05T22:36:03.857Z,9.80
2022-09-05T22:38:31.197Z,9.80
2022-09-05T22:43:46.632Z,9.90
2022-09-05T22:46:16.836Z,9.90
2022-09-05T22:48:58.464Z,10.00
2022-09-05T22:51:46.237Z,10.00
2022-09-05T22:54:13.510Z,10.10
2022-09-05T22:56:40.890Z,10.10
2022-09-05T22:59:09.513Z,10.10
2022-09-05T23:01:37.113Z,10.10
2022-09-05T23:04:07.312Z,10.10
2022-09-05T23:06:34.648Z,10.00
2022-09-05T23:09:01.817Z,9.90
2022-09-05T23:11:28.886Z,9.80
2022-09-05T23:13:55.992Z,9.90
2022-09-05T23:21:46.703Z,9.70
2022-09-05T23:24:13.719Z,9.60
2022-09-05T23:26:40.732Z,9.60
2022-09-05T23:29:12.713Z,9.60
2022-09-05T23:34:25.824Z,9.50
2022-09-05T23:36:52.909Z,9.50
2022-09-05T23:39:19.917Z,9.40
2022-09-05T23:41:46.992Z,9.40
2022-09-05T23:44:14.153Z,9.40
2022-09-05T23:46:41.258Z,9.40
2022-09-05T23:49:08.340Z,9.30
2022-09-05T23:51:35.445Z,9.30
2022-09-05T23:54:02.855Z,9.30
2022-09-05T23:56:30.096Z,9.20
